createdAt,value
2022-10-23T00:01:30.028Z,0.80
2022-10-23T00:04:03.621Z,0.80
2022-10-23T00:06:31.830Z,0.82
2022-10-23T00:08:59.061Z,0.77
2022-10-23T00:11:29.263Z,0.80
2022-10-23T00:13:58.423Z,0.90
2022-10-23T00:16:26.053Z,0.80
2022-10-23T00:18:53.150Z,0.70
2022-10-23T00:21:21.240Z,0.70
2022-10-23T00:23:48.592Z,0.60
2022-10-23T00:26:16.375Z,0.63
2022-10-23T00:28:50.143Z,0.70
2022-10-23T00:31:18.563Z,1.02
2022-10-23T00:33:46.341Z,1.00
2022-10-23T00:36:15.334Z,0.70
2022-10-23T00:38:44.879Z,0.63
2022-10-23T00:41:19.082Z,0.70
2022-10-23T00:44:07.428Z,0.70
2022-10-23T00:46:35.169Z,0.80
2022-10-23T00:49:04.053Z,0.63
2022-10-23T00:51:37.112Z,0.93
2022-10-23T00:56:58.638Z,0.65
2022-10-23T00:59:26.425Z,0.70
2022-10-23T01:01:54.224Z,0.70
2022-10-23T01:04:22.642Z,0.90
2022-10-23T01:07:04.931Z,0.70
2022-10-23T01:09:51.085Z,0.60
2022-10-23T01:12:44.162Z,0.60
2022-10-23T01:15:27.055Z,0.57
2022-10-23T01:17:57.588Z,0.70
2022-10-23T01:21:03.247Z,0.60
2022-10-23T01:23:45.342Z,1.42
2022-10-23T01:26:36.207Z,0.93
2022-10-23T01:29:12.906Z,0.80
2022-10-23T01:31:46.880Z,1.45
2022-10-23T01:34:20.811Z,1.00
2022-10-23T01:36:50.980Z,1.20
2022-10-23T01:39:40.076Z,0.75
2022-10-23T01:42:12.104Z,1.00
2022-10-23T01:44:44.821Z,0.95
2022-10-23T01:47:17.199Z,1.15
2022-10-23T01:50:04.775Z,0.90
2022-10-23T01:52:32.405Z,0.60
2022-10-23T01:55:01.486Z,0.95
2022-10-23T01:57:33.565Z,0.70
2022-10-23T02:00:13.245Z,0.68
2022-10-23T02:02:53.212Z,0.80
2022-10-23T02:05:28.804Z,0.88
2022-10-23T02:07:58.127Z,0.80
2022-10-23T02:11:06.143Z,0.70
2022-10-23T02:14:03.989Z,0.70
2022-10-23T02:16:55.052Z,0.80
2022-10-23T02:19:55.166Z,0.95
2022-10-23T02:22:33.909Z,0.60
2022-10-23T02:25:09.523Z,0.60
2022-10-23T02:27:52.473Z,0.50
2022-10-23T02:30:21.836Z,0.55
2022-10-23T02:33:06.343Z,0.90
2022-10-23T02:35:33.703Z,0.90
2022-10-23T02:38:40.642Z,0.77
2022-10-23T02:41:31.945Z,1.00
2022-10-23T02:44:18.003Z,1.00
2022-10-23T02:47:09.315Z,0.98
2022-10-23T02:49:59.301Z,1.15
2022-10-23T02:52:51.006Z,0.80
2022-10-23T02:55:36.654Z,0.80
2022-10-23T02:58:26.755Z,1.02
2022-10-23T03:01:02.721Z,1.13
2022-10-23T03:03:38.322Z,1.55
2022-10-23T03:06:06.793Z,1.30
2022-10-23T03:08:54.778Z,1.02
2022-10-23T03:11:25.062Z,0.68
2022-10-23T03:13:52.497Z,1.02
2022-10-23T03:16:19.714Z,0.90
2022-10-23T03:18:52.247Z,1.00
2022-10-23T03:21:19.339Z,0.95
2022-10-23T03:23:50.581Z,1.27
2022-10-23T03:26:22.722Z,0.82
2022-10-23T03:28:49.831Z,0.90
2022-10-23T03:31:19.455Z,0.70
2022-10-23T03:33:49.014Z,0.60
2022-10-23T03:36:16.137Z,0.70
2022-10-23T03:38:44.686Z,0.80
2022-10-23T03:41:11.804Z,1.15
2022-10-23T03:43:39.000Z,0.80
2022-10-23T03:46:09.835Z,0.70
2022-10-23T03:48:38.392Z,1.25
2022-10-23T03:51:06.987Z,0.90
2022-10-23T03:53:34.490Z,0.68
2022-10-23T03:56:04.409Z,0.60
2022-10-23T03:58:32.997Z,0.70
2022-10-23T04:01:00.162Z,0.50
2022-10-23T04:03:27.760Z,0.80
2022-10-23T04:05:54.842Z,0.73
2022-10-23T04:08:22.810Z,0.80
2022-10-23T04:10:54.905Z,1.00
2022-10-23T04:13:31.489Z,0.85
2022-10-23T04:15:58.705Z,1.30
2022-10-23T04:18:25.872Z,1.00
2022-10-23T04:20:53.364Z,1.02
2022-10-23T04:23:20.427Z,0.80
2022-10-23T04:28:15.487Z,1.10
2022-10-23T04:30:42.614Z,1.33
2022-10-23T04:33:12.782Z,1.38
2022-10-23T04:35:40.024Z,1.20
2022-10-23T04:38:07.253Z,1.58
2022-10-23T04:40:34.758Z,1.20
2022-10-23T04:43:02.006Z,1.30
2022-10-23T04:45:32.764Z,1.70
2022-10-23T04:47:59.933Z,1.55
2022-10-23T04:50:28.504Z,1.10
2022-10-23T04:53:29.205Z,1.73
2022-10-23T04:56:25.527Z,2.13
2022-10-23T04:59:03.372Z,1.48
2022-10-23T05:01:31.677Z,2.85
2022-10-23T05:03:59.819Z,1.50
2022-10-23T05:06:27.328Z,1.60
2022-10-23T05:09:14.700Z,1.67
2022-10-23T05:11:59.792Z,1.85
2022-10-23T05:14:26.955Z,1.30
2022-10-23T05:17:13.884Z,2.03
2022-10-23T05:19:45.980Z,1.58
2022-10-23T05:22:14.844Z,1.58
2022-10-23T05:25:02.106Z,1.10
2022-10-23T05:27:32.331Z,1.58
2022-10-23T05:29:59.485Z,1.02
2022-10-23T05:32:32.493Z,1.33
2022-10-23T05:35:01.441Z,1.10
2022-10-23T05:37:30.815Z,1.70
2022-10-23T05:40:12.063Z,1.00
2022-10-23T05:42:41.809Z,1.23
2022-10-23T05:45:11.408Z,1.00
2022-10-23T05:48:11.223Z,1.20
2022-10-23T05:51:10.755Z,0.80
2022-10-23T05:53:53.292Z,1.20
2022-10-23T05:56:39.127Z,1.80
2022-10-23T05:59:10.734Z,1.75
2022-10-23T06:01:50.447Z,1.65
2022-10-23T06:04:40.531Z,1.40
2022-10-23T06:07:32.355Z,1.55
2022-10-23T06:10:06.382Z,0.98
2022-10-23T06:12:43.935Z,1.65
2022-10-23T06:15:15.171Z,1.27
2022-10-23T06:18:04.678Z,1.48
2022-10-23T06:20:39.254Z,1.30
2022-10-23T06:23:11.714Z,1.25
2022-10-23T06:26:18.809Z,1.50
2022-10-23T06:28:59.801Z,1.17
2022-10-23T06:31:28.365Z,1.40
2022-10-23T06:33:58.796Z,2.22
2022-10-23T06:36:27.377Z,1.08
2022-10-23T06:39:01.359Z,1.45
2022-10-23T06:41:48.466Z,1.48
2022-10-23T06:44:35.531Z,1.50
2022-10-23T06:47:14.370Z,1.13
2022-10-23T06:50:02.126Z,1.38
2022-10-23T06:52:47.880Z,2.28
2022-10-23T06:55:18.969Z,1.00
2022-10-23T06:57:47.128Z,1.23
2022-10-23T07:00:14.944Z,1.45
2022-10-23T07:02:49.123Z,2.55
2022-10-23T07:05:16.777Z,2.33
2022-10-23T07:07:44.281Z,1.60
2022-10-23T07:12:44.502Z,1.48
2022-10-23T07:15:37.515Z,1.60
2022-10-23T07:18:07.049Z,1.67
2022-10-23T07:20:58.813Z,2.05
2022-10-23T07:23:26.286Z,1.60
2022-10-23T07:25:53.941Z,1.65
2022-10-23T07:28:23.448Z,1.45
2022-10-23T07:31:00.787Z,1.13
2022-10-23T07:33:46.279Z,1.88
2022-10-23T07:36:19.077Z,1.75
2022-10-23T07:38:47.008Z,1.35
2022-10-23T07:41:14.206Z,1.98
2022-10-23T07:43:41.563Z,1.30
2022-10-23T07:46:10.062Z,1.67
2022-10-23T07:48:40.332Z,1.25
2022-10-23T07:51:14.890Z,1.30
2022-10-23T07:53:45.975Z,1.20
2022-10-23T07:56:36.097Z,1.55
2022-10-23T07:59:27.094Z,1.50
2022-10-23T08:01:56.824Z,1.50
2022-10-23T08:04:35.635Z,1.45
2022-10-23T08:07:12.742Z,1.20
2022-10-23T08:09:43.077Z,1.30
2022-10-23T08:12:10.361Z,1.63
2022-10-23T08:14:37.623Z,1.02
2022-10-23T08:17:05.525Z,1.60
2022-10-23T08:20:13.805Z,1.80
2022-10-23T08:22:43.702Z,1.73
2022-10-23T08:25:13.002Z,1.80
2022-10-23T08:27:40.494Z,1.50
2022-10-23T08:30:08.521Z,1.20
2022-10-23T08:32:35.812Z,1.27
2022-10-23T08:35:03.831Z,1.50
2022-10-23T08:37:32.674Z,1.50
2022-10-23T08:39:59.967Z,1.40
2022-10-23T08:43:11.075Z,1.20
2022-10-23T08:46:04.216Z,1.08
2022-10-23T08:49:09.483Z,1.38
2022-10-23T08:51:55.478Z,1.55
2022-10-23T08:54:28.199Z,1.10
2022-10-23T08:57:09.092Z,1.33
2022-10-23T08:59:42.809Z,1.15
2022-10-23T09:02:25.710Z,1.50
2022-10-23T09:04:55.907Z,1.85
2022-10-23T09:08:00.760Z,2.25
2022-10-23T09:11:02.220Z,2.00
2022-10-23T09:14:00.305Z,2.22
2022-10-23T09:16:55.941Z,3.30
2022-10-23T09:19:27.275Z,1.98
2022-10-23T09:21:56.042Z,2.53
2022-10-23T09:24:25.402Z,3.83
2022-10-23T09:26:54.076Z,2.20
2022-10-23T09:29:21.312Z,1.80
2022-10-23T09:31:53.268Z,1.80
2022-10-23T09:34:24.418Z,1.83
2022-10-23T09:36:57.607Z,1.70
2022-10-23T09:39:31.703Z,1.38
2022-10-23T09:42:00.067Z,1.70
2022-10-23T09:44:33.014Z,1.88
2022-10-23T09:47:01.387Z,1.92
2022-10-23T09:49:31.091Z,2.88
2022-10-23T09:52:12.387Z,2.75
2022-10-23T09:54:53.799Z,2.30
2022-10-23T09:57:29.151Z,3.95
2022-10-23T10:00:03.834Z,3.58
2022-10-23T10:02:39.046Z,3.17
2022-10-23T10:05:21.868Z,2.13
2022-10-23T10:08:22.909Z,2.17
2022-10-23T10:11:17.450Z,1.50
2022-10-23T10:14:03.392Z,2.40
2022-10-23T10:16:43.412Z,2.08
2022-10-23T10:19:52.189Z,1.70
2022-10-23T10:22:32.376Z,1.73
2022-10-23T10:25:09.290Z,1.67
2022-10-23T10:28:03.292Z,1.50
2022-10-23T10:30:55.578Z,1.63
2022-10-23T10:33:55.136Z,1.35
2022-10-23T10:36:48.628Z,1.27
2022-10-23T10:39:35.270Z,1.45
2022-10-23T10:42:31.394Z,1.23
2022-10-23T10:45:20.517Z,1.05
2022-10-23T10:48:19.224Z,1.60
2022-10-23T10:51:31.894Z,1.35
2022-10-23T10:54:04.704Z,1.63
2022-10-23T10:56:35.559Z,1.20
2022-10-23T10:59:11.518Z,2.45
2022-10-23T11:01:47.710Z,1.83
2022-10-23T11:04:37.396Z,1.40
2022-10-23T11:07:09.274Z,1.92
2022-10-23T11:09:36.533Z,1.30
2022-10-23T11:12:04.314Z,1.55
2022-10-23T11:14:34.169Z,1.67
2022-10-23T11:17:08.793Z,1.80
2022-10-23T11:20:14.863Z,2.08
2022-10-23T11:23:08.720Z,2.60
2022-10-23T11:25:59.550Z,1.85
2022-10-23T11:28:48.056Z,2.22
2022-10-23T11:31:38.375Z,2.38
2022-10-23T11:34:11.330Z,2.22
2022-10-23T11:36:55.293Z,2.72
2022-10-23T11:39:29.984Z,2.00
2022-10-23T11:42:15.409Z,2.35
2022-10-23T11:44:50.438Z,2.10
2022-10-23T11:47:40.304Z,2.65
2022-10-23T11:50:07.866Z,2.20
2022-10-23T11:53:09.205Z,2.65
2022-10-23T11:55:42.262Z,3.05
2022-10-23T11:58:18.690Z,3.30
2022-10-23T12:01:18.422Z,3.30
2022-10-23T12:03:56.960Z,2.67
2022-10-23T12:06:33.488Z,2.33
2022-10-23T12:09:06.547Z,4.43
2022-10-23T12:11:46.988Z,3.08
2022-10-23T12:14:29.465Z,2.85
2022-10-23T12:16:57.225Z,4.78
2022-10-23T12:19:27.909Z,3.13
2022-10-23T12:21:59.584Z,3.17
2022-10-23T12:24:48.613Z,2.85
2022-10-23T12:27:48.246Z,3.20
2022-10-23T12:30:49.974Z,5.07
2022-10-23T12:33:35.219Z,2.97
2022-10-23T12:36:11.201Z,2.92
2022-10-23T12:38:50.026Z,3.47
2022-10-23T12:41:27.029Z,2.58
2022-10-23T12:43:58.480Z,3.30
2022-10-23T12:46:32.594Z,4.32
2022-10-23T12:49:04.108Z,3.17
2022-10-23T12:51:35.634Z,4.88
2022-10-23T12:54:03.759Z,3.33
2022-10-23T12:56:39.144Z,4.85
2022-10-23T12:59:18.768Z,2.72
2022-10-23T13:01:50.403Z,4.72
2022-10-23T13:04:25.512Z,3.95
2022-10-23T13:06:53.492Z,4.82
2022-10-23T13:09:30.145Z,4.40
2022-10-23T13:12:30.253Z,4.07
2022-10-23T13:15:19.110Z,3.67
2022-10-23T13:18:03.041Z,3.55
2022-10-23T13:20:39.069Z,4.18
2022-10-23T13:23:24.901Z,3.97
2022-10-23T13:25:56.913Z,4.03
2022-10-23T13:28:27.172Z,3.90
2022-10-23T13:31:10.669Z,3.42
2022-10-23T13:33:43.985Z,6.03
2022-10-23T13:36:14.005Z,3.83
2022-10-23T13:38:43.835Z,4.68
2022-10-23T13:41:19.968Z,4.20
2022-10-23T13:43:48.451Z,5.32
2022-10-23T13:46:17.237Z,4.50
2022-10-23T13:48:44.998Z,3.17
2022-10-23T13:51:15.553Z,3.05
2022-10-23T13:53:42.714Z,3.03
2022-10-23T13:56:14.367Z,2.63
2022-10-23T13:58:42.084Z,3.70
2022-10-23T14:01:25.309Z,3.17
2022-10-23T14:03:53.583Z,2.20
2022-10-23T14:06:21.000Z,2.47
2022-10-23T14:08:48.437Z,2.40
2022-10-23T14:11:17.725Z,2.58
2022-10-23T14:13:45.609Z,2.20
2022-10-23T14:16:14.470Z,1.92
2022-10-23T14:18:41.993Z,3.00
2022-10-23T14:21:12.253Z,2.85
2022-10-23T14:23:39.410Z,2.55
2022-10-23T14:26:12.587Z,2.42
2022-10-23T14:28:40.003Z,1.65
2022-10-23T14:31:09.671Z,2.72
2022-10-23T14:33:36.920Z,2.63
2022-10-23T14:36:04.476Z,2.35
2022-10-23T14:38:31.712Z,2.17
2022-10-23T14:40:59.179Z,3.17
2022-10-23T14:43:26.700Z,2.00
2022-10-23T14:45:53.830Z,2.75
2022-10-23T14:48:20.926Z,2.33
2022-10-23T14:50:50.018Z,2.20
2022-10-23T14:53:17.361Z,1.90
2022-10-23T14:55:44.528Z,2.95
2022-10-23T14:58:36.931Z,3.08
2022-10-23T15:01:04.377Z,2.60
2022-10-23T15:03:32.077Z,2.30
2022-10-23T15:05:59.668Z,2.35
2022-10-23T15:08:26.816Z,3.00
2022-10-23T15:10:54.257Z,2.70
2022-10-23T15:13:21.400Z,3.13
2022-10-23T15:15:48.711Z,4.45
2022-10-23T15:18:15.811Z,2.53
2022-10-23T15:20:42.961Z,3.88
2022-10-23T15:23:10.134Z,2.40
2022-10-23T15:25:37.271Z,2.08
2022-10-23T15:28:04.360Z,2.10
2022-10-23T15:30:31.504Z,2.17
2022-10-23T15:32:58.817Z,2.90
2022-10-23T15:35:26.105Z,2.75
2022-10-23T15:37:53.326Z,3.15
2022-10-23T15:40:20.468Z,3.75
2022-10-23T15:42:49.979Z,3.20
2022-10-23T15:45:17.380Z,1.80
2022-10-23T15:47:45.040Z,2.08
2022-10-23T15:50:12.310Z,1.98
2022-10-23T15:52:39.702Z,2.60
2022-10-23T15:55:07.263Z,2.45
2022-10-23T15:57:34.422Z,2.45
2022-10-23T16:00:01.615Z,4.38
2022-10-23T16:02:28.868Z,2.28
2022-10-23T16:04:56.138Z,2.33
2022-10-23T16:07:23.449Z,2.20
2022-10-23T16:09:51.034Z,2.50
2022-10-23T16:12:18.640Z,1.58
2022-10-23T16:14:45.985Z,1.42
2022-10-23T16:17:17.264Z,2.92
2022-10-23T16:19:44.463Z,1.90
2022-10-23T16:22:11.711Z,2.30
2022-10-23T16:24:39.174Z,2.75
2022-10-23T16:27:06.352Z,2.47
2022-10-23T16:29:33.355Z,2.42
2022-10-23T16:32:00.527Z,2.65
2022-10-23T16:34:27.865Z,2.40
2022-10-23T16:36:55.096Z,1.90
2022-10-23T16:39:42.237Z,3.05
2022-10-23T16:42:40.401Z,4.53
2022-10-23T16:45:26.269Z,2.92
2022-10-23T16:47:53.833Z,2.80
2022-10-23T16:50:20.945Z,1.92
2022-10-23T16:52:49.909Z,2.03
2022-10-23T16:55:19.436Z,2.25
2022-10-23T16:57:46.521Z,4.07
2022-10-23T17:00:13.891Z,2.22
2022-10-23T17:02:41.106Z,4.30
2022-10-23T17:05:08.543Z,5.00
2022-10-23T17:07:37.287Z,1.88
2022-10-23T17:10:05.054Z,5.57
2022-10-23T17:12:32.243Z,2.33
2022-10-23T17:14:59.351Z,1.80
2022-10-23T17:17:27.356Z,2.13
2022-10-23T17:19:54.471Z,2.95
2022-10-23T17:22:21.704Z,2.08
2022-10-23T17:24:51.599Z,1.42
2022-10-23T17:27:21.162Z,1.70
2022-10-23T17:29:48.255Z,3.08
2022-10-23T17:32:15.490Z,3.58
2022-10-23T17:34:42.584Z,1.55
2022-10-23T17:37:10.421Z,1.10
2022-10-23T17:39:37.569Z,0.93
2022-10-23T17:42:04.793Z,1.50
2022-10-23T17:44:32.111Z,1.50
2022-10-23T17:46:59.326Z,1.63
2022-10-23T17:49:26.805Z,2.45
2022-10-23T17:51:56.644Z,1.23
2022-10-23T17:54:26.136Z,1.98
2022-10-23T17:56:53.271Z,1.30
2022-10-23T17:59:20.519Z,1.40
2022-10-23T18:01:48.917Z,2.35
2022-10-23T18:04:18.619Z,1.70
2022-10-23T18:06:49.535Z,5.03
2022-10-23T18:09:17.229Z,2.97
2022-10-23T18:11:48.224Z,4.40
2022-10-23T18:14:18.001Z,3.20
2022-10-23T18:16:46.014Z,4.63
2022-10-23T18:19:14.430Z,8.43
2022-10-23T18:21:41.511Z,4.40
2022-10-23T18:24:09.016Z,8.55
2022-10-23T18:26:39.252Z,3.60
2022-10-23T18:29:10.933Z,4.28
2022-10-23T18:31:39.331Z,4.88
2022-10-23T18:34:12.566Z,3.47
2022-10-23T18:36:40.896Z,4.47
2022-10-23T18:39:11.489Z,6.15
2022-10-23T18:41:41.600Z,3.90
2022-10-23T18:44:09.737Z,2.92
2022-10-23T18:46:37.580Z,5.07
2022-10-23T18:49:05.004Z,5.00
2022-10-23T18:51:35.098Z,3.63
2022-10-23T18:54:05.871Z,4.85
2022-10-23T18:56:35.171Z,4.50
2022-10-23T18:59:05.153Z,5.65
2022-10-23T19:01:32.692Z,3.80
2022-10-23T19:04:01.465Z,4.35
2022-10-23T19:06:30.115Z,3.25
2022-10-23T19:08:57.744Z,3.85
2022-10-23T19:11:25.976Z,4.75
2022-10-23T19:13:53.679Z,3.38
2022-10-23T19:16:32.413Z,5.00
2022-10-23T19:19:32.428Z,4.95
2022-10-23T19:22:02.214Z,3.30
2022-10-23T19:24:38.201Z,2.70
2022-10-23T19:27:06.181Z,2.88
2022-10-23T19:29:36.884Z,6.60
2022-10-23T19:32:04.301Z,4.05
2022-10-23T19:34:31.582Z,5.68
2022-10-23T19:36:59.133Z,4.78
2022-10-23T19:39:26.694Z,5.32
2022-10-23T19:41:54.980Z,4.22
2022-10-23T19:44:22.219Z,2.08
2022-10-23T19:46:49.914Z,3.53
2022-10-23T19:49:18.050Z,4.45
2022-10-23T19:51:50.628Z,3.83
2022-10-23T19:54:19.400Z,3.78
2022-10-23T19:56:46.510Z,4.18
2022-10-23T19:59:13.995Z,3.05
2022-10-23T20:01:45.060Z,2.40
2022-10-23T20:04:16.817Z,2.65
2022-10-23T20:06:44.171Z,2.10
2022-10-23T20:09:11.307Z,2.55
2022-10-23T20:11:39.686Z,3.15
2022-10-23T20:14:07.539Z,2.53
2022-10-23T20:16:37.821Z,1.50
2022-10-23T20:19:07.921Z,4.22
2022-10-23T20:21:37.486Z,3.35
2022-10-23T20:24:05.117Z,3.15
2022-10-23T20:26:32.823Z,2.53
2022-10-23T20:28:59.942Z,2.33
2022-10-23T20:31:28.149Z,1.52
2022-10-23T20:33:56.170Z,3.08
2022-10-23T20:36:32.708Z,2.15
2022-10-23T20:39:03.314Z,2.50
2022-10-23T20:41:33.350Z,1.95
2022-10-23T20:44:00.785Z,2.90
2022-10-23T20:46:28.416Z,1.73
2022-10-23T20:48:56.180Z,1.63
2022-10-23T20:51:24.763Z,1.88
2022-10-23T20:53:53.450Z,1.73
2022-10-23T20:56:50.005Z,3.85
2022-10-23T20:59:18.919Z,2.03
2022-10-23T21:01:51.502Z,2.95
2022-10-23T21:04:21.719Z,2.90
2022-10-23T21:07:08.891Z,3.47
2022-10-23T21:09:36.557Z,4.47
2022-10-23T21:12:04.166Z,3.35
2022-10-23T21:14:31.354Z,3.25
2022-10-23T21:16:58.632Z,3.78
2022-10-23T21:19:25.889Z,1.85
2022-10-23T21:21:53.763Z,4.07
2022-10-23T21:24:21.049Z,2.20
2022-10-23T21:26:48.337Z,2.50
2022-10-23T21:29:19.817Z,3.03
2022-10-23T21:31:59.489Z,4.25
2022-10-23T21:34:27.291Z,3.28
2022-10-23T21:39:46.263Z,2.58
2022-10-23T21:42:14.566Z,2.33
2022-10-23T21:44:41.636Z,3.20
2022-10-23T21:47:08.781Z,2.30
2022-10-23T21:49:35.912Z,2.95
2022-10-23T21:52:04.489Z,2.92
2022-10-23T21:54:31.802Z,4.07
2022-10-23T21:56:58.828Z,3.05
2022-10-23T21:59:30.013Z,2.05
2022-10-23T22:01:59.585Z,2.60
2022-10-23T22:04:26.816Z,3.13
2022-10-23T22:06:53.954Z,2.50
2022-10-23T22:09:22.742Z,3.25
2022-10-23T22:11:51.041Z,2.22
2022-10-23T22:14:18.676Z,3.95
2022-10-23T22:16:46.169Z,1.65
2022-10-23T22:19:15.114Z,1.50
2022-10-23T22:21:42.851Z,2.70
2022-10-23T22:24:10.347Z,2.08
2022-10-23T22:26:44.790Z,1.23
2022-10-23T22:29:18.681Z,2.67
2022-10-23T22:31:49.712Z,1.55
2022-10-23T22:34:47.860Z,1.90
2022-10-23T22:37:13.029Z,2.95
2022-10-23T22:39:41.026Z,1.50
2022-10-23T22:42:08.721Z,2.63
2022-10-23T22:44:36.096Z,2.05
2022-10-23T22:47:03.557Z,1.92
2022-10-23T22:49:30.673Z,1.65
2022-10-23T22:51:57.911Z,1.50
2022-10-23T22:54:25.133Z,2.13
2022-10-23T22:56:52.312Z,1.67
2022-10-23T22:59:19.346Z,1.52
2022-10-23T23:01:47.764Z,3.17
2022-10-23T23:04:38.133Z,1.80
2022-10-23T23:07:07.237Z,1.95
2022-10-23T23:09:37.352Z,2.22
2022-10-23T23:12:04.944Z,3.00
2022-10-23T23:14:32.127Z,1.73
2022-10-23T23:16:59.277Z,1.33
2022-10-23T23:19:26.766Z,1.42
2022-10-23T23:21:58.776Z,2.40
2022-10-23T23:24:26.411Z,2.08
2022-10-23T23:26:53.507Z,2.53
2022-10-23T23:29:20.865Z,1.90
2022-10-23T23:31:48.161Z,1.98
2022-10-23T23:34:15.201Z,1.77
2022-10-23T23:36:42.328Z,2.20
2022-10-23T23:39:10.412Z,2.20
2022-10-23T23:41:38.503Z,3.45
2022-10-23T23:44:06.110Z,2.63
2022-10-23T23:46:33.207Z,2.28
2022-10-23T23:49:00.368Z,2.47
2022-10-23T23:51:27.457Z,3.22
2022-10-23T23:53:54.791Z,2.28
2022-10-23T23:56:22.560Z,1.80
2022-10-23T23:58:49.760Z,2.60
